createdAt,value
2019-04-10T00:02:15.408Z,44.70
2019-04-10T00:04:49.511Z,44.55
2019-04-10T00:07:23.635Z,44.45
2019-04-10T00:09:57.959Z,44.16
2019-04-10T00:12:32.119Z,44.06
2019-04-10T00:15:07.246Z,43.99
2019-04-10T00:17:41.449Z,43.69
2019-04-10T00:20:16.286Z,43.37
2019-04-10T00:22:50.682Z,43.45
2019-04-10T00:25:24.811Z,43.18
2019-04-10T00:27:59.284Z,43.26
2019-04-10T00:30:33.653Z,43.41
2019-04-10T00:33:08.274Z,43.53
2019-04-10T00:35:43.626Z,43.42
2019-04-10T00:38:17.981Z,43.78
2019-04-10T00:40:52.362Z,44.15
2019-04-10T00:43:26.726Z,43.85
2019-04-10T00:46:02.023Z,43.68
2019-04-10T00:48:36.285Z,43.61
2019-04-10T00:51:10.876Z,43.62
2019-04-10T00:53:45.532Z,43.64
2019-04-10T00:56:20.748Z,43.76
2019-04-10T00:58:55.446Z,43.86
2019-04-10T01:01:29.874Z,43.84
2019-04-10T01:04:04.406Z,44.17
2019-04-10T01:06:40.375Z,44.50
2019-04-10T01:09:15.401Z,44.73
2019-04-10T01:11:49.766Z,45.77
2019-04-10T01:14:25.230Z,46.38
2019-04-10T01:17:02.052Z,46.65
2019-04-10T01:19:36.657Z,46.71
2019-04-10T01:22:11.347Z,46.99
2019-04-10T01:24:46.095Z,47.39
2019-04-10T01:27:20.446Z,47.55
2019-04-10T01:29:54.298Z,47.86
2019-04-10T01:32:41.807Z,48.01
2019-04-10T01:35:16.198Z,48.40
2019-04-10T01:37:56.158Z,47.96
2019-04-10T01:40:27.383Z,47.39
2019-04-10T01:43:08.334Z,47.13
2019-04-10T01:45:38.211Z,46.70
2019-04-10T01:48:13.209Z,46.16
2019-04-10T01:50:47.560Z,45.95
2019-04-10T01:53:21.903Z,45.63
2019-04-10T01:55:56.089Z,45.32
2019-04-10T01:58:30.183Z,45.28
2019-04-10T02:01:18.629Z,45.49
2019-04-10T02:03:52.588Z,46.01
2019-04-10T02:06:27.421Z,46.17
2019-04-10T02:09:02.537Z,46.48
2019-04-10T02:11:39.778Z,46.76
2019-04-10T02:14:14.316Z,46.67
2019-04-10T02:16:49.742Z,46.78
2019-04-10T02:19:23.960Z,47.04
2019-04-10T02:22:00.203Z,47.09
2019-04-10T02:24:35.480Z,47.24
2019-04-10T02:27:09.932Z,47.41
2019-04-10T02:29:44.025Z,47.62
2019-04-10T02:32:18.969Z,47.88
2019-04-10T02:34:55.135Z,48.19
2019-04-10T02:37:31.022Z,48.57
2019-04-10T02:40:07.133Z,49.29
2019-04-10T02:42:43.121Z,49.57
2019-04-10T02:45:18.952Z,49.55
2019-04-10T02:47:54.927Z,49.31
2019-04-10T02:50:29.383Z,49.04
2019-04-10T02:53:05.371Z,48.94
2019-04-10T02:55:40.865Z,48.94
2019-04-10T02:58:16.032Z,48.81
2019-04-10T03:00:53.874Z,48.77
2019-04-10T03:03:27.552Z,47.19
2019-04-10T03:06:02.596Z,46.57
2019-04-10T03:08:54.958Z,46.24
2019-04-10T03:11:14.463Z,46.02
2019-04-10T03:13:49.099Z,45.92
2019-04-10T03:16:23.689Z,45.87
2019-04-10T03:18:57.568Z,45.78
2019-04-10T03:21:31.604Z,45.72
2019-04-10T03:24:06.275Z,45.62
2019-04-10T03:26:40.256Z,45.60
2019-04-10T03:29:14.222Z,45.71
2019-04-10T03:31:50.504Z,46.68
2019-04-10T03:34:28.394Z,47.08
2019-04-10T03:37:02.813Z,47.25
2019-04-10T03:39:38.467Z,47.33
2019-04-10T03:42:12.747Z,47.24
2019-04-10T03:44:47.168Z,47.13
2019-04-10T03:47:21.182Z,46.96
2019-04-10T03:49:55.438Z,46.94
2019-04-10T03:52:29.532Z,46.82
2019-04-10T03:55:04.859Z,46.70
2019-04-10T03:57:38.797Z,46.63
2019-04-10T04:00:14.128Z,46.63
2019-04-10T04:02:48.320Z,46.68
2019-04-10T04:05:22.450Z,46.60
2019-04-10T04:07:57.889Z,46.51
2019-04-10T04:10:32.868Z,46.48
2019-04-10T04:13:07.521Z,46.49
2019-04-10T04:15:42.190Z,46.46
2019-04-10T04:18:17.115Z,46.46
2019-04-10T04:20:51.323Z,46.37
2019-04-10T04:23:25.791Z,46.39
2019-04-10T04:26:00.918Z,46.79
2019-04-10T04:28:36.230Z,47.01
2019-04-10T04:31:10.476Z,47.44
2019-04-10T04:33:45.000Z,47.64
2019-04-10T04:36:20.301Z,47.86
2019-04-10T04:38:54.567Z,48.16
2019-04-10T04:41:29.038Z,48.53
2019-04-10T04:44:03.960Z,48.82
2019-04-10T04:46:38.687Z,48.68
2019-04-10T04:49:13.781Z,48.59
2019-04-10T04:51:48.131Z,48.54
2019-04-10T04:54:22.062Z,48.40
2019-04-10T04:56:56.316Z,48.16
2019-04-10T04:59:30.531Z,48.90
2019-04-10T05:02:05.786Z,49.87
2019-04-10T05:04:40.142Z,50.14
2019-04-10T05:07:14.941Z,50.09
2019-04-10T05:09:50.447Z,49.78
2019-04-10T05:12:25.549Z,49.74
2019-04-10T05:15:00.376Z,49.57
2019-04-10T05:17:35.124Z,49.35
2019-04-10T05:20:11.217Z,49.15
2019-04-10T05:22:45.671Z,49.12
2019-04-10T05:25:20.954Z,48.92
2019-04-10T05:27:55.466Z,48.67
2019-04-10T05:30:29.679Z,48.77
2019-04-10T05:33:04.058Z,48.81
2019-04-10T05:35:39.821Z,48.60
2019-04-10T05:38:13.782Z,48.39
2019-04-10T05:40:48.537Z,48.26
2019-04-10T05:43:22.640Z,48.13
2019-04-10T05:45:57.169Z,48.07
2019-04-10T05:48:31.682Z,48.00
2019-04-10T05:51:07.944Z,47.88
2019-04-10T05:53:42.956Z,47.76
2019-04-10T05:56:19.058Z,47.79
2019-04-10T05:58:53.322Z,47.68
2019-04-10T06:01:35.235Z,47.54
2019-04-10T06:04:05.054Z,47.39
2019-04-10T06:06:39.265Z,47.27
2019-04-10T06:09:14.308Z,47.15
2019-04-10T06:11:49.015Z,47.20
2019-04-10T06:14:24.220Z,47.11
2019-04-10T06:17:01.257Z,47.01
2019-04-10T06:19:34.431Z,46.96
2019-04-10T06:22:09.717Z,47.03
2019-04-10T06:24:44.677Z,46.88
2019-04-10T06:27:18.718Z,46.77
2019-04-10T06:29:53.148Z,46.76
2019-04-10T06:32:27.560Z,46.70
2019-04-10T06:35:02.069Z,46.75
2019-04-10T06:37:36.522Z,46.70
2019-04-10T06:40:18.158Z,46.60
2019-04-10T06:42:51.558Z,46.42
2019-04-10T06:45:26.100Z,46.16
2019-04-10T06:48:00.515Z,45.86
2019-04-10T06:50:34.988Z,46.19
2019-04-10T06:53:10.183Z,46.61
2019-04-10T06:55:44.899Z,46.03
2019-04-10T06:58:20.112Z,46.05
2019-04-10T07:01:01.498Z,46.37
2019-04-10T07:03:50.762Z,46.36
2019-04-10T07:06:17.585Z,47.13
2019-04-10T07:08:50.852Z,47.93
2019-04-10T07:11:30.513Z,48.07
2019-04-10T07:14:01.768Z,47.50
2019-04-10T07:16:37.033Z,47.14
2019-04-10T07:19:13.111Z,47.52
2019-04-10T07:21:47.304Z,47.45
2019-04-10T07:24:21.343Z,47.54
2019-04-10T07:27:00.228Z,47.32
2019-04-10T07:29:32.510Z,46.96
2019-04-10T07:32:09.646Z,46.93
2019-04-10T07:34:42.582Z,46.96
2019-04-10T07:37:18.454Z,46.90
2019-04-10T07:39:53.046Z,46.91
2019-04-10T07:42:33.916Z,46.91
2019-04-10T07:45:03.257Z,46.83
2019-04-10T07:47:38.031Z,46.69
2019-04-10T07:50:14.251Z,46.64
2019-04-10T07:52:48.503Z,46.68
2019-04-10T07:55:23.878Z,46.74
2019-04-10T07:57:59.248Z,46.71
2019-04-10T08:00:34.411Z,46.73
2019-04-10T08:03:08.859Z,46.70
2019-04-10T08:05:44.034Z,46.60
2019-04-10T08:08:19.257Z,46.48
2019-04-10T08:10:53.146Z,47.25
2019-04-10T08:13:26.938Z,47.33
2019-04-10T08:16:00.806Z,47.06
2019-04-10T08:18:37.711Z,46.97
2019-04-10T08:21:11.918Z,46.97
2019-04-10T08:23:46.574Z,46.92
2019-04-10T08:26:21.392Z,46.76
2019-04-10T08:28:57.148Z,46.66
2019-04-10T08:31:32.840Z,46.57
2019-04-10T08:34:07.081Z,46.54
2019-04-10T08:36:41.079Z,46.50
2019-04-10T08:39:28.437Z,46.40
2019-04-10T08:41:52.207Z,46.37
2019-04-10T08:44:26.371Z,46.39
2019-04-10T08:47:00.694Z,46.16
2019-04-10T08:49:34.916Z,46.07
2019-04-10T08:52:10.326Z,46.19
2019-04-10T08:54:44.770Z,46.20
2019-04-10T08:57:19.326Z,46.11
2019-04-10T08:59:54.148Z,46.14
2019-04-10T09:02:28.401Z,46.16
2019-04-10T09:05:03.625Z,46.19
2019-04-10T09:07:38.370Z,46.13
2019-04-10T09:10:12.526Z,46.10
2019-04-10T09:12:47.268Z,46.16
2019-04-10T09:15:21.755Z,46.13
2019-04-10T09:17:55.987Z,46.08
2019-04-10T09:20:30.958Z,46.11
2019-04-10T09:25:41.612Z,45.97
2019-04-10T09:28:16.347Z,45.90
2019-04-10T09:30:51.300Z,45.92
2019-04-10T09:33:28.227Z,45.89
2019-04-10T09:36:02.643Z,46.01
2019-04-10T09:38:37.068Z,45.90
2019-04-10T09:41:12.272Z,46.07
2019-04-10T09:43:47.714Z,47.19
2019-04-10T09:46:22.123Z,46.52
2019-04-10T09:48:56.458Z,46.11
2019-04-10T09:51:31.856Z,43.69
2019-04-10T09:54:07.794Z,42.02
2019-04-10T09:56:42.057Z,41.43
2019-04-10T09:59:16.481Z,40.28
2019-04-10T10:01:51.414Z,39.06
2019-04-10T10:04:26.041Z,38.06
2019-04-10T10:07:00.480Z,37.40
2019-04-10T10:09:34.805Z,36.68
2019-04-10T10:12:09.617Z,36.20
2019-04-10T10:14:44.309Z,35.82
2019-04-10T10:17:20.210Z,35.40
2019-04-10T10:19:55.374Z,34.90
2019-04-10T10:22:30.881Z,34.78
2019-04-10T10:25:06.968Z,34.41
2019-04-10T10:27:42.580Z,34.22
2019-04-10T10:30:17.931Z,34.59
2019-04-10T10:32:53.176Z,34.05
2019-04-10T10:35:29.409Z,34.01
2019-04-10T10:38:05.302Z,33.55
2019-04-10T10:40:39.844Z,33.58
2019-04-10T10:43:14.201Z,33.35
2019-04-10T10:45:49.186Z,33.33
2019-04-10T10:48:23.994Z,33.82
2019-04-10T10:50:58.305Z,33.14
2019-04-10T10:53:32.442Z,33.52
2019-04-10T10:56:07.301Z,33.36
2019-04-10T10:58:41.503Z,33.15
2019-04-10T11:01:15.875Z,32.54
2019-04-10T11:03:51.077Z,32.59
2019-04-10T11:06:25.270Z,33.16
2019-04-10T11:08:59.685Z,33.25
2019-04-10T11:11:34.743Z,32.89
2019-04-10T11:14:10.962Z,32.65
2019-04-10T11:16:45.537Z,33.04
2019-04-10T11:19:21.095Z,33.15
2019-04-10T11:21:56.751Z,33.01
2019-04-10T11:24:31.614Z,32.92
2019-04-10T11:27:06.316Z,33.21
2019-04-10T11:29:42.614Z,32.91
2019-04-10T11:32:17.622Z,33.21
2019-04-10T11:34:52.880Z,33.09
2019-04-10T11:37:37.476Z,33.38
2019-04-10T11:40:05.163Z,33.21
2019-04-10T11:42:40.167Z,33.38
2019-04-10T11:45:18.153Z,33.41
2019-04-10T11:47:52.831Z,34.27
2019-04-10T11:50:28.564Z,33.30
2019-04-10T11:53:04.402Z,33.52
2019-04-10T11:58:17.805Z,33.42
2019-04-10T12:00:54.632Z,33.58
2019-04-10T12:03:28.244Z,33.58
2019-04-10T12:06:04.340Z,33.53
2019-04-10T12:09:04.370Z,33.54
2019-04-10T12:11:18.538Z,33.74
2019-04-10T12:13:50.488Z,33.93
2019-04-10T12:16:25.163Z,34.10
2019-04-10T12:18:59.419Z,34.11
2019-04-10T12:21:33.756Z,34.42
2019-04-10T12:24:07.885Z,35.02
2019-04-10T12:26:42.374Z,35.14
2019-04-10T12:29:16.412Z,34.72
2019-04-10T12:31:52.309Z,34.64
2019-04-10T12:34:26.726Z,34.35
2019-04-10T12:37:01.105Z,34.60
2019-04-10T12:39:36.342Z,33.03
2019-04-10T12:42:10.520Z,32.65
2019-04-10T12:44:44.576Z,32.88
2019-04-10T12:47:18.790Z,33.22
2019-04-10T12:49:52.724Z,33.44
2019-04-10T12:52:27.099Z,33.72
2019-04-10T12:55:01.915Z,34.22
2019-04-10T12:57:37.057Z,34.91
2019-04-10T13:00:15.889Z,35.21
2019-04-10T13:02:52.438Z,35.33
2019-04-10T13:05:29.335Z,35.44
2019-04-10T13:08:14.627Z,35.55
2019-04-10T13:10:40.473Z,35.72
2019-04-10T13:13:14.616Z,35.91
2019-04-10T13:15:49.754Z,36.17
2019-04-10T13:18:24.669Z,36.19
2019-04-10T13:20:58.959Z,36.31
2019-04-10T13:23:33.151Z,36.56
2019-04-10T13:26:09.620Z,36.78
2019-04-10T13:28:44.099Z,36.87
2019-04-10T13:31:19.253Z,36.97
2019-04-10T13:33:53.365Z,37.21
2019-04-10T13:36:27.490Z,37.24
2019-04-10T13:39:02.486Z,37.55
2019-04-10T13:41:38.632Z,37.53
2019-04-10T13:44:12.718Z,37.66
2019-04-10T13:46:46.966Z,37.80
2019-04-10T13:49:21.911Z,38.13
2019-04-10T13:51:57.498Z,38.11
2019-04-10T13:54:36.765Z,38.33
2019-04-10T13:57:11.905Z,38.36
2019-04-10T13:59:46.934Z,38.93
2019-04-10T14:02:32.232Z,39.29
2019-04-10T14:05:07.900Z,39.42
2019-04-10T14:07:44.934Z,39.57
2019-04-10T14:10:20.920Z,39.69
2019-04-10T14:12:56.411Z,39.81
2019-04-10T14:15:31.744Z,39.97
2019-04-10T14:18:08.168Z,40.08
2019-04-10T14:20:43.721Z,40.20
2019-04-10T14:23:23.881Z,40.30
2019-04-10T14:26:30.117Z,40.40
2019-04-10T14:29:02.187Z,40.48
2019-04-10T14:31:42.675Z,40.58
2019-04-10T14:34:18.819Z,40.69
2019-04-10T14:36:53.291Z,40.83
2019-04-10T14:39:27.585Z,40.90
2019-04-10T14:42:02.341Z,41.03
2019-04-10T14:44:36.857Z,41.03
2019-04-10T14:47:13.480Z,41.10
2019-04-10T14:49:47.814Z,41.67
2019-04-10T14:52:23.223Z,41.28
2019-04-10T14:55:02.101Z,41.45
2019-04-10T14:57:36.947Z,42.17
2019-04-10T15:00:17.297Z,42.20
2019-04-10T15:02:51.743Z,42.84
2019-04-10T15:05:25.944Z,42.68
2019-04-10T15:08:01.597Z,42.87
2019-04-10T15:10:36.160Z,43.02
2019-04-10T15:13:16.247Z,43.14
2019-04-10T15:15:46.229Z,43.24
2019-04-10T15:18:20.522Z,43.30
2019-04-10T15:20:56.571Z,43.39
2019-04-10T15:23:31.692Z,43.47
2019-04-10T15:26:06.475Z,43.50
2019-04-10T15:28:41.412Z,43.56
2019-04-10T15:31:15.823Z,43.62
2019-04-10T15:33:49.916Z,43.08
2019-04-10T15:36:25.198Z,42.68
2019-04-10T15:39:00.371Z,42.51
2019-04-10T15:41:39.197Z,44.47
2019-04-10T15:44:14.880Z,45.46
2019-04-10T15:46:49.187Z,43.87
2019-04-10T15:49:23.429Z,42.67
2019-04-10T15:51:57.365Z,40.98
2019-04-10T15:54:32.114Z,38.45
2019-04-10T15:57:06.831Z,37.99
2019-04-10T15:59:41.052Z,36.60
2019-04-10T16:02:15.446Z,35.46
2019-04-10T16:04:49.473Z,35.22
2019-04-10T16:07:24.452Z,34.24
2019-04-10T16:10:07.136Z,33.49
2019-04-10T16:12:41.671Z,33.29
2019-04-10T16:15:17.265Z,33.12
2019-04-10T16:17:59.194Z,32.43
2019-04-10T16:20:34.701Z,32.36
2019-04-10T16:23:31.412Z,32.19
2019-04-10T16:26:07.050Z,32.07
2019-04-10T16:28:41.143Z,31.87
2019-04-10T16:31:15.303Z,32.40
2019-04-10T16:33:50.505Z,32.42
2019-04-10T16:36:26.332Z,31.95
2019-04-10T16:39:00.887Z,32.25
2019-04-10T16:41:37.544Z,32.03
2019-04-10T16:44:13.040Z,31.71
2019-04-10T16:46:49.446Z,31.71
2019-04-10T16:49:23.203Z,32.02
2019-04-10T16:51:58.697Z,31.78
2019-04-10T16:54:33.336Z,31.07
2019-04-10T16:57:08.257Z,31.30
2019-04-10T16:59:42.676Z,31.53
2019-04-10T17:02:17.910Z,32.06
2019-04-10T17:04:52.330Z,31.34
2019-04-10T17:07:27.271Z,31.12
2019-04-10T17:10:12.626Z,31.90
2019-04-10T17:12:38.068Z,32.00
2019-04-10T17:15:12.851Z,31.92
2019-04-10T17:17:47.059Z,31.97
2019-04-10T17:20:22.419Z,31.61
2019-04-10T17:22:57.217Z,32.43
2019-04-10T17:25:32.315Z,32.31
2019-04-10T17:28:08.052Z,31.88
2019-04-10T17:30:42.364Z,31.64
2019-04-10T17:33:16.698Z,31.77
2019-04-10T17:35:51.803Z,31.38
2019-04-10T17:38:26.747Z,30.85
2019-04-10T17:41:04.461Z,31.54
2019-04-10T17:43:38.695Z,30.94
2019-04-10T17:46:13.215Z,30.84
2019-04-10T17:48:47.746Z,32.44
2019-04-10T17:51:22.070Z,32.22
2019-04-10T17:53:57.850Z,32.40
2019-04-10T17:56:32.593Z,32.43
2019-04-10T17:59:07.876Z,32.10
2019-04-10T18:01:43.237Z,31.29
2019-04-10T18:04:17.973Z,31.18
2019-04-10T18:06:52.081Z,30.96
2019-04-10T18:09:27.883Z,31.14
2019-04-10T18:12:02.200Z,30.82
2019-04-10T18:14:39.104Z,30.78
2019-04-10T18:17:12.216Z,31.13
2019-04-10T18:19:46.236Z,30.85
2019-04-10T18:22:20.671Z,31.18
2019-04-10T18:24:55.732Z,31.01
2019-04-10T18:27:30.266Z,31.12
2019-04-10T18:30:05.739Z,31.37
2019-04-10T18:32:40.237Z,31.38
2019-04-10T18:35:14.528Z,31.28
2019-04-10T18:37:49.100Z,30.81
2019-04-10T18:40:23.432Z,31.37
2019-04-10T18:42:59.156Z,31.05
2019-04-10T18:45:33.714Z,31.04
2019-04-10T18:48:08.327Z,31.15
2019-04-10T18:50:43.457Z,31.37
2019-04-10T18:53:17.682Z,32.36
2019-04-10T18:55:52.326Z,31.60
2019-04-10T18:58:29.707Z,32.25
2019-04-10T19:01:31.917Z,32.36
2019-04-10T19:04:14.092Z,32.74
2019-04-10T19:06:56.850Z,31.79
2019-04-10T19:09:32.518Z,31.42
2019-04-10T19:12:06.948Z,31.44
2019-04-10T19:14:42.535Z,31.20
2019-04-10T19:17:17.119Z,31.07
2019-04-10T19:19:52.468Z,31.26
2019-04-10T19:22:26.626Z,31.45
2019-04-10T19:25:00.899Z,31.38
2019-04-10T19:27:34.674Z,31.35
2019-04-10T19:30:17.872Z,31.04
2019-04-10T19:32:51.987Z,31.35
2019-04-10T19:35:26.693Z,31.46
2019-04-10T19:38:01.062Z,31.67
2019-04-10T19:40:36.966Z,31.21
2019-04-10T19:43:11.484Z,31.26
2019-04-10T19:45:45.601Z,31.23
2019-04-10T19:48:19.790Z,30.93
2019-04-10T19:50:53.978Z,31.37
2019-04-10T19:53:28.963Z,31.35
2019-04-10T19:56:04.380Z,32.25
2019-04-10T19:58:38.655Z,32.07
2019-04-10T20:01:13.124Z,32.03
2019-04-10T20:03:48.012Z,32.14
2019-04-10T20:06:23.826Z,31.62
2019-04-10T20:08:57.987Z,31.45
2019-04-10T20:11:39.037Z,31.68
2019-04-10T20:14:08.666Z,32.00
2019-04-10T20:16:43.861Z,31.25
2019-04-10T20:19:18.217Z,31.23
2019-04-10T20:21:52.824Z,31.61
2019-04-10T20:24:27.155Z,31.30
2019-04-10T20:27:01.593Z,30.98
2019-04-10T20:29:35.557Z,31.31
2019-04-10T20:32:11.191Z,30.91
2019-04-10T20:34:45.858Z,31.19
2019-04-10T20:37:20.734Z,31.63
2019-04-10T20:39:55.879Z,31.09
2019-04-10T20:42:38.325Z,31.12
2019-04-10T20:45:14.362Z,31.16
2019-04-10T20:47:49.793Z,31.62
2019-04-10T20:50:23.978Z,31.76
2019-04-10T20:53:01.885Z,31.43
2019-04-10T20:55:36.217Z,30.96
2019-04-10T20:58:11.283Z,30.81
2019-04-10T21:00:45.586Z,31.00
2019-04-10T21:03:19.721Z,30.77
2019-04-10T21:05:53.749Z,30.91
2019-04-10T21:08:27.867Z,31.68
2019-04-10T21:11:03.297Z,31.50
2019-04-10T21:13:38.412Z,31.46
2019-04-10T21:16:13.398Z,31.13
2019-04-10T21:18:48.273Z,31.57
2019-04-10T21:21:22.310Z,31.15
2019-04-10T21:23:56.545Z,31.28
2019-04-10T21:26:31.219Z,31.21
2019-04-10T21:29:09.455Z,31.93
2019-04-10T21:32:03.240Z,31.76
2019-04-10T21:34:43.288Z,31.50
2019-04-10T21:37:17.917Z,31.59
2019-04-10T21:39:52.317Z,32.22
2019-04-10T21:42:27.211Z,31.82
2019-04-10T21:45:01.962Z,32.29
2019-04-10T21:47:36.049Z,31.84
2019-04-10T21:50:11.080Z,31.85
2019-04-10T21:52:45.528Z,32.43
2019-04-10T21:55:20.992Z,32.18
2019-04-10T21:57:55.522Z,32.56
2019-04-10T22:00:54.514Z,32.42
2019-04-10T22:03:30.216Z,32.60
2019-04-10T22:06:20.081Z,33.56
2019-04-10T22:09:12.619Z,33.27
2019-04-10T22:11:51.623Z,33.63
2019-04-10T22:14:26.146Z,33.51
2019-04-10T22:17:00.450Z,33.08
2019-04-10T22:19:35.710Z,33.80
2019-04-10T22:22:11.341Z,33.18
2019-04-10T22:24:46.305Z,33.68
2019-04-10T22:27:20.628Z,33.65
2019-04-10T22:29:54.969Z,33.51
2019-04-10T22:32:29.387Z,33.33
2019-04-10T22:35:03.709Z,33.38
2019-04-10T22:37:37.846Z,33.83
2019-04-10T22:40:13.014Z,33.46
2019-04-10T22:42:48.627Z,33.42
2019-04-10T22:45:33.088Z,33.30
2019-04-10T22:48:08.315Z,33.39
2019-04-10T22:50:42.933Z,33.22
2019-04-10T22:53:19.555Z,33.40
2019-04-10T22:55:56.357Z,34.12
2019-04-10T22:58:31.618Z,33.60
2019-04-10T23:01:06.883Z,33.82
2019-04-10T23:03:41.115Z,33.88
2019-04-10T23:06:15.373Z,34.18
2019-04-10T23:08:49.701Z,34.27
2019-04-10T23:11:34.828Z,34.57
2019-04-10T23:14:00.541Z,34.65
2019-04-10T23:16:35.734Z,34.74
2019-04-10T23:19:10.223Z,34.99
2019-04-10T23:21:44.938Z,35.55
2019-04-10T23:24:19.128Z,35.57
2019-04-10T23:26:53.372Z,35.89
2019-04-10T23:29:29.269Z,36.14
2019-04-10T23:32:03.834Z,35.90
2019-04-10T23:34:38.943Z,35.75
2019-04-10T23:37:13.180Z,35.74
2019-04-10T23:39:48.209Z,35.74
2019-04-10T23:42:23.284Z,36.21
2019-04-10T23:44:57.548Z,35.97
2019-04-10T23:47:31.849Z,35.97
2019-04-10T23:50:08.065Z,35.96
2019-04-10T23:52:42.321Z,36.06
2019-04-10T23:55:17.669Z,35.87
2019-04-10T23:57:52.019Z,36.19
